sensor_id;sensor_type;location;lat;lon;timestamp;P1;durP1;ratioP1;P2;durP2;ratioP2
53718;SDS011;39616;48.872;9.390;2024-02-28T00:00:07;40.13;;;18.38;;
53718;SDS011;39616;48.872;9.390;2024-02-28T00:02:40;38.38;;;17.05;;
53718;SDS011;39616;48.872;9.390;2024-02-28T00:05:11;33.30;;;17.13;;
53718;SDS011;39616;48.872;9.390;2024-02-28T00:07:41;35.83;;;17.38;;
53718;SDS011;39616;48.872;9.390;2024-02-28T00:10:11;36.60;;;17.63;;
53718;SDS011;39616;48.872;9.390;2024-02-28T00:12:42;36.10;;;16.95;;
53718;SDS011;39616;48.872;9.390;2024-02-28T00:15:12;30.33;;;16.25;;
53718;SDS011;39616;48.872;9.390;2024-02-28T00:17:43;36.70;;;17.77;;
53718;SDS011;39616;48.872;9.390;2024-02-28T00:20:14;34.80;;;17.50;;
53718;SDS011;39616;48.872;9.390;2024-02-28T00:22:44;35.35;;;17.63;;
53718;SDS011;39616;48.872;9.390;2024-02-28T00:25:14;34.78;;;17.58;;
53718;SDS011;39616;48.872;9.390;2024-02-28T00:27:45;35.05;;;17.00;;
53718;SDS011;39616;48.872;9.390;2024-02-28T00:30:16;41.85;;;18.90;;
53718;SDS011;39616;48.872;9.390;2024-02-28T00:32:47;36.13;;;17.55;;
53718;SDS011;39616;48.872;9.390;2024-02-28T00:35:17;38.40;;;19.00;;
53718;SDS011;39616;48.872;9.390;2024-02-28T00:37:48;40.67;;;18.80;;
53718;SDS011;39616;48.872;9.390;2024-02-28T00:40:18;37.10;;;19.00;;
53718;SDS011;39616;48.872;9.390;2024-02-28T00:42:48;37.45;;;18.08;;
53718;SDS011;39616;48.872;9.390;2024-02-28T00:45:19;39.50;;;18.70;;
53718;SDS011;39616;48.872;9.390;2024-02-28T00:47:49;42.45;;;19.65;;
53718;SDS011;39616;48.872;9.390;2024-02-28T00:50:19;39.20;;;19.17;;
53718;SDS011;39616;48.872;9.390;2024-02-28T00:52:50;38.00;;;18.83;;
53718;SDS011;39616;48.872;9.390;2024-02-28T00:55:20;37.90;;;18.05;;
53718;SDS011;39616;48.872;9.390;2024-02-28T00:57:50;37.63;;;18.33;;
53718;SDS011;39616;48.872;9.390;2024-02-28T01:00:20;43.75;;;19.27;;
53718;SDS011;39616;48.872;9.390;2024-02-28T01:02:51;41.58;;;19.05;;
53718;SDS011;39616;48.872;9.390;2024-02-28T01:05:21;36.60;;;17.08;;
53718;SDS011;39616;48.872;9.390;2024-02-28T01:07:51;40.05;;;18.30;;
53718;SDS011;39616;48.872;9.390;2024-02-28T01:10:22;41.35;;;18.15;;
53718;SDS011;39616;48.872;9.390;2024-02-28T01:12:52;37.42;;;18.45;;
53718;SDS011;39616;48.872;9.390;2024-02-28T01:15:23;39.20;;;18.67;;
53718;SDS011;39616;48.872;9.390;2024-02-28T01:17:53;38.42;;;17.17;;
53718;SDS011;39616;48.872;9.390;2024-02-28T01:20:23;31.60;;;17.15;;
53718;SDS011;39616;48.872;9.390;2024-02-28T01:22:54;34.58;;;16.13;;
53718;SDS011;39616;48.872;9.390;2024-02-28T01:25:24;35.55;;;16.75;;
53718;SDS011;39616;48.872;9.390;2024-02-28T01:27:55;35.50;;;17.27;;
53718;SDS011;39616;48.872;9.390;2024-02-28T01:30:26;34.55;;;17.33;;
53718;SDS011;39616;48.872;9.390;2024-02-28T01:32:57;37.75;;;17.02;;
53718;SDS011;39616;48.872;9.390;2024-02-28T01:35:27;35.22;;;17.38;;
53718;SDS011;39616;48.872;9.390;2024-02-28T01:37:57;35.33;;;17.90;;
53718;SDS011;39616;48.872;9.390;2024-02-28T01:40:27;34.03;;;16.10;;
53718;SDS011;39616;48.872;9.390;2024-02-28T01:43:07;31.58;;;16.00;;
53718;SDS011;39616;48.872;9.390;2024-02-28T01:45:38;32.42;;;15.75;;
53718;SDS011;39616;48.872;9.390;2024-02-28T01:48:09;34.25;;;17.35;;
53718;SDS011;39616;48.872;9.390;2024-02-28T01:50:40;33.25;;;16.33;;
53718;SDS011;39616;48.872;9.390;2024-02-28T01:53:11;36.28;;;17.10;;
53718;SDS011;39616;48.872;9.390;2024-02-28T01:55:43;34.30;;;16.83;;
53718;SDS011;39616;48.872;9.390;2024-02-28T01:58:14;35.08;;;17.00;;
53718;SDS011;39616;48.872;9.390;2024-02-28T02:00:44;33.30;;;15.90;;
53718;SDS011;39616;48.872;9.390;2024-02-28T02:03:15;31.70;;;15.02;;
53718;SDS011;39616;48.872;9.390;2024-02-28T02:05:46;31.23;;;15.43;;
53718;SDS011;39616;48.872;9.390;2024-02-28T02:08:16;39.05;;;17.02;;
53718;SDS011;39616;48.872;9.390;2024-02-28T02:10:47;32.58;;;16.50;;
53718;SDS011;39616;48.872;9.390;2024-02-28T02:13:17;31.67;;;16.27;;
53718;SDS011;39616;48.872;9.390;2024-02-28T02:15:47;37.25;;;17.77;;
53718;SDS011;39616;48.872;9.390;2024-02-28T02:18:17;35.65;;;16.02;;
53718;SDS011;39616;48.872;9.390;2024-02-28T02:20:52;36.58;;;17.15;;
53718;SDS011;39616;48.872;9.390;2024-02-28T02:23:28;34.53;;;17.05;;
53718;SDS011;39616;48.872;9.390;2024-02-28T02:25:59;37.80;;;18.08;;
53718;SDS011;39616;48.872;9.390;2024-02-28T02:28:29;33.35;;;17.25;;
53718;SDS011;39616;48.872;9.390;2024-02-28T02:31:00;35.35;;;18.35;;
53718;SDS011;39616;48.872;9.390;2024-02-28T02:33:30;36.08;;;18.35;;
53718;SDS011;39616;48.872;9.390;2024-02-28T02:36:00;36.55;;;17.15;;
53718;SDS011;39616;48.872;9.390;2024-02-28T02:38:30;38.05;;;18.10;;
53718;SDS011;39616;48.872;9.390;2024-02-28T02:41:01;39.08;;;18.25;;
53718;SDS011;39616;48.872;9.390;2024-02-28T02:43:31;41.35;;;19.48;;
53718;SDS011;39616;48.872;9.390;2024-02-28T02:46:01;40.35;;;18.45;;
53718;SDS011;39616;48.872;9.390;2024-02-28T02:48:32;39.33;;;18.13;;
53718;SDS011;39616;48.872;9.390;2024-02-28T02:51:03;36.83;;;17.27;;
53718;SDS011;39616;48.872;9.390;2024-02-28T02:53:33;34.58;;;17.75;;
53718;SDS011;39616;48.872;9.390;2024-02-28T02:56:03;39.28;;;18.35;;
53718;SDS011;39616;48.872;9.390;2024-02-28T02:58:34;33.50;;;17.50;;
53718;SDS011;39616;48.872;9.390;2024-02-28T03:01:05;32.95;;;15.77;;
53718;SDS011;39616;48.872;9.390;2024-02-28T03:03:35;37.35;;;18.50;;
53718;SDS011;39616;48.872;9.390;2024-02-28T03:06:07;33.80;;;16.90;;
53718;SDS011;39616;48.872;9.390;2024-02-28T03:08:39;39.35;;;18.17;;
53718;SDS011;39616;48.872;9.390;2024-02-28T03:11:10;37.85;;;18.23;;
53718;SDS011;39616;48.872;9.390;2024-02-28T03:13:41;32.65;;;17.30;;
53718;SDS011;39616;48.872;9.390;2024-02-28T03:16:11;33.92;;;17.40;;
53718;SDS011;39616;48.872;9.390;2024-02-28T03:18:41;34.75;;;17.33;;
53718;SDS011;39616;48.872;9.390;2024-02-28T03:21:12;37.22;;;18.30;;
53718;SDS011;39616;48.872;9.390;2024-02-28T03:23:42;38.03;;;17.98;;
53718;SDS011;39616;48.872;9.390;2024-02-28T03:26:13;36.58;;;17.55;;
53718;SDS011;39616;48.872;9.390;2024-02-28T03:28:43;38.03;;;18.50;;
53718;SDS011;39616;48.872;9.390;2024-02-28T03:31:13;37.35;;;17.85;;
53718;SDS011;39616;48.872;9.390;2024-02-28T03:33:44;37.78;;;17.73;;
53718;SDS011;39616;48.872;9.390;2024-02-28T03:36:16;37.60;;;17.67;;
53718;SDS011;39616;48.872;9.390;2024-02-28T03:38:47;38.65;;;18.70;;
53718;SDS011;39616;48.872;9.390;2024-02-28T03:41:17;39.22;;;18.98;;
53718;SDS011;39616;48.872;9.390;2024-02-28T03:43:48;39.15;;;17.70;;
53718;SDS011;39616;48.872;9.390;2024-02-28T03:46:18;39.25;;;18.58;;
53718;SDS011;39616;48.872;9.390;2024-02-28T03:48:48;37.60;;;17.92;;
53718;SDS011;39616;48.872;9.390;2024-02-28T03:51:18;40.55;;;17.70;;
53718;SDS011;39616;48.872;9.390;2024-02-28T03:53:49;45.50;;;21.30;;
53718;SDS011;39616;48.872;9.390;2024-02-28T03:56:22;38.55;;;18.63;;
53718;SDS011;39616;48.872;9.390;2024-02-28T03:58:55;44.83;;;18.80;;
53718;SDS011;39616;48.872;9.390;2024-02-28T04:01:25;42.13;;;18.80;;
53718;SDS011;39616;48.872;9.390;2024-02-28T04:03:56;39.63;;;18.95;;
53718;SDS011;39616;48.872;9.390;2024-02-28T04:06:26;41.35;;;20.20;;
53718;SDS011;39616;48.872;9.390;2024-02-28T04:08:57;42.08;;;18.67;;
53718;SDS011;39616;48.872;9.390;2024-02-28T04:11:27;38.35;;;18.48;;
53718;SDS011;39616;48.872;9.390;2024-02-28T04:13:57;43.13;;;19.40;;
53718;SDS011;39616;48.872;9.390;2024-02-28T04:16:28;39.30;;;17.58;;
53718;SDS011;39616;48.872;9.390;2024-02-28T04:18:58;41.35;;;19.05;;
53718;SDS011;39616;48.872;9.390;2024-02-28T04:21:29;39.92;;;18.92;;
53718;SDS011;39616;48.872;9.390;2024-02-28T04:23:59;44.63;;;19.42;;
53718;SDS011;39616;48.872;9.390;2024-02-28T04:26:29;38.90;;;18.55;;
53718;SDS011;39616;48.872;9.390;2024-02-28T04:28:59;43.35;;;19.67;;
53718;SDS011;39616;48.872;9.390;2024-02-28T04:31:34;40.70;;;18.40;;
53718;SDS011;39616;48.872;9.390;2024-02-28T04:34:08;39.92;;;18.45;;
53718;SDS011;39616;48.872;9.390;2024-02-28T04:36:38;37.88;;;17.50;;
53718;SDS011;39616;48.872;9.390;2024-02-28T04:39:08;38.65;;;18.98;;
53718;SDS011;39616;48.872;9.390;2024-02-28T04:41:38;41.42;;;19.70;;
53718;SDS011;39616;48.872;9.390;2024-02-28T04:44:09;41.10;;;21.05;;
53718;SDS011;39616;48.872;9.390;2024-02-28T04:46:39;47.20;;;21.15;;
53718;SDS011;39616;48.872;9.390;2024-02-28T04:49:09;43.15;;;20.40;;
53718;SDS011;39616;48.872;9.390;2024-02-28T04:51:39;45.63;;;20.05;;
53718;SDS011;39616;48.872;9.390;2024-02-28T04:54:10;44.67;;;20.75;;
53718;SDS011;39616;48.872;9.390;2024-02-28T04:56:40;41.72;;;20.70;;
53718;SDS011;39616;48.872;9.390;2024-02-28T04:59:11;45.60;;;21.08;;
53718;SDS011;39616;48.872;9.390;2024-02-28T05:01:42;41.05;;;20.08;;
53718;SDS011;39616;48.872;9.390;2024-02-28T05:04:13;42.85;;;20.27;;
53718;SDS011;39616;48.872;9.390;2024-02-28T05:06:43;39.72;;;19.38;;
53718;SDS011;39616;48.872;9.390;2024-02-28T05:09:14;43.72;;;20.70;;
53718;SDS011;39616;48.872;9.390;2024-02-28T05:11:44;45.53;;;21.98;;
53718;SDS011;39616;48.872;9.390;2024-02-28T05:14:15;44.65;;;19.58;;
53718;SDS011;39616;48.872;9.390;2024-02-28T05:16:46;43.35;;;20.48;;
53718;SDS011;39616;48.872;9.390;2024-02-28T05:19:17;45.20;;;20.92;;
53718;SDS011;39616;48.872;9.390;2024-02-28T05:21:48;44.35;;;20.73;;
53718;SDS011;39616;48.872;9.390;2024-02-28T05:24:19;45.67;;;19.13;;
53718;SDS011;39616;48.872;9.390;2024-02-28T05:26:49;44.95;;;21.10;;
53718;SDS011;39616;48.872;9.390;2024-02-28T05:29:19;45.33;;;20.30;;
53718;SDS011;39616;48.872;9.390;2024-02-28T05:31:49;44.17;;;20.02;;
53718;SDS011;39616;48.872;9.390;2024-02-28T05:34:20;39.08;;;17.20;;
53718;SDS011;39616;48.872;9.390;2024-02-28T05:36:50;38.53;;;18.33;;
53718;SDS011;39616;48.872;9.390;2024-02-28T05:39:21;43.42;;;20.35;;
53718;SDS011;39616;48.872;9.390;2024-02-28T05:41:51;42.50;;;19.27;;
53718;SDS011;39616;48.872;9.390;2024-02-28T05:44:21;45.65;;;20.35;;
53718;SDS011;39616;48.872;9.390;2024-02-28T05:46:52;37.60;;;17.92;;
53718;SDS011;39616;48.872;9.390;2024-02-28T05:49:22;44.58;;;19.95;;
53718;SDS011;39616;48.872;9.390;2024-02-28T05:51:53;38.42;;;19.33;;
53718;SDS011;39616;48.872;9.390;2024-02-28T05:54:23;38.95;;;17.08;;
53718;SDS011;39616;48.872;9.390;2024-02-28T05:56:54;37.42;;;18.00;;
53718;SDS011;39616;48.872;9.390;2024-02-28T05:59:24;30.98;;;15.57;;
53718;SDS011;39616;48.872;9.390;2024-02-28T06:01:55;37.97;;;16.58;;
53718;SDS011;39616;48.872;9.390;2024-02-28T06:04:25;38.53;;;15.02;;
53718;SDS011;39616;48.872;9.390;2024-02-28T06:06:55;50.40;;;15.68;;
53718;SDS011;39616;48.872;9.390;2024-02-28T06:09:26;30.88;;;14.23;;
53718;SDS011;39616;48.872;9.390;2024-02-28T06:11:59;29.13;;;14.38;;
53718;SDS011;39616;48.872;9.390;2024-02-28T06:14:31;30.30;;;16.02;;
53718;SDS011;39616;48.872;9.390;2024-02-28T06:17:02;35.88;;;16.17;;
53718;SDS011;39616;48.872;9.390;2024-02-28T06:19:32;45.58;;;16.95;;
53718;SDS011;39616;48.872;9.390;2024-02-28T06:22:02;37.97;;;15.90;;
53718;SDS011;39616;48.872;9.390;2024-02-28T06:24:33;33.33;;;15.15;;
53718;SDS011;39616;48.872;9.390;2024-02-28T06:27:04;33.45;;;15.32;;
53718;SDS011;39616;48.872;9.390;2024-02-28T06:29:35;46.13;;;15.10;;
53718;SDS011;39616;48.872;9.390;2024-02-28T06:32:06;34.00;;;14.90;;
53718;SDS011;39616;48.872;9.390;2024-02-28T06:34:37;35.78;;;14.70;;
53718;SDS011;39616;48.872;9.390;2024-02-28T06:37:07;33.53;;;15.00;;
53718;SDS011;39616;48.872;9.390;2024-02-28T06:39:37;31.73;;;15.20;;
53718;SDS011;39616;48.872;9.390;2024-02-28T06:42:08;28.35;;;14.35;;
53718;SDS011;39616;48.872;9.390;2024-02-28T06:44:38;30.27;;;14.35;;
53718;SDS011;39616;48.872;9.390;2024-02-28T06:47:08;31.30;;;15.18;;
53718;SDS011;39616;48.872;9.390;2024-02-28T06:49:39;36.15;;;16.13;;
53718;SDS011;39616;48.872;9.390;2024-02-28T06:52:11;33.65;;;14.68;;
53718;SDS011;39616;48.872;9.390;2024-02-28T06:54:42;32.47;;;14.90;;
53718;SDS011;39616;48.872;9.390;2024-02-28T06:57:12;29.58;;;15.10;;
53718;SDS011;39616;48.872;9.390;2024-02-28T06:59:42;32.00;;;16.00;;
53718;SDS011;39616;48.872;9.390;2024-02-28T07:02:13;37.53;;;16.52;;
53718;SDS011;39616;48.872;9.390;2024-02-28T07:04:43;38.35;;;17.80;;
53718;SDS011;39616;48.872;9.390;2024-02-28T07:07:13;31.55;;;15.23;;
53718;SDS011;39616;48.872;9.390;2024-02-28T07:09:44;30.08;;;15.85;;
53718;SDS011;39616;48.872;9.390;2024-02-28T07:12:14;33.65;;;15.63;;
53718;SDS011;39616;48.872;9.390;2024-02-28T07:14:44;34.63;;;16.27;;
53718;SDS011;39616;48.872;9.390;2024-02-28T07:17:14;31.08;;;14.90;;
53718;SDS011;39616;48.872;9.390;2024-02-28T07:19:45;31.65;;;15.43;;
53718;SDS011;39616;48.872;9.390;2024-02-28T07:22:15;34.00;;;15.55;;
53718;SDS011;39616;48.872;9.390;2024-02-28T07:24:47;37.33;;;15.02;;
53718;SDS011;39616;48.872;9.390;2024-02-28T07:27:17;31.45;;;15.18;;
53718;SDS011;39616;48.872;9.390;2024-02-28T07:29:48;32.75;;;15.35;;
53718;SDS011;39616;48.872;9.390;2024-02-28T07:32:18;35.22;;;17.10;;
53718;SDS011;39616;48.872;9.390;2024-02-28T07:34:48;31.92;;;14.05;;
53718;SDS011;39616;48.872;9.390;2024-02-28T07:37:19;32.28;;;16.15;;
53718;SDS011;39616;48.872;9.390;2024-02-28T07:39:49;33.47;;;15.98;;
53718;SDS011;39616;48.872;9.390;2024-02-28T07:42:19;34.95;;;16.67;;
53718;SDS011;39616;48.872;9.390;2024-02-28T07:44:49;29.08;;;13.63;;
53718;SDS011;39616;48.872;9.390;2024-02-28T07:47:23;29.65;;;14.43;;
53718;SDS011;39616;48.872;9.390;2024-02-28T07:49:53;27.45;;;14.13;;
53718;SDS011;39616;48.872;9.390;2024-02-28T07:52:24;32.00;;;15.00;;
53718;SDS011;39616;48.872;9.390;2024-02-28T07:54:54;29.08;;;14.43;;
53718;SDS011;39616;48.872;9.390;2024-02-28T07:57:24;33.40;;;15.70;;
53718;SDS011;39616;48.872;9.390;2024-02-28T07:59:55;33.63;;;15.32;;
53718;SDS011;39616;48.872;9.390;2024-02-28T08:02:25;32.00;;;15.70;;
53718;SDS011;39616;48.872;9.390;2024-02-28T08:04:56;29.42;;;13.95;;
53718;SDS011;39616;48.872;9.390;2024-02-28T08:07:26;32.70;;;15.35;;
53718;SDS011;39616;48.872;9.390;2024-02-28T08:09:56;30.52;;;14.82;;
53718;SDS011;39616;48.872;9.390;2024-02-28T08:12:27;38.33;;;18.88;;
53718;SDS011;39616;48.872;9.390;2024-02-28T08:14:57;27.70;;;13.70;;
53718;SDS011;39616;48.872;9.390;2024-02-28T08:17:28;31.52;;;15.02;;
53718;SDS011;39616;48.872;9.390;2024-02-28T08:19:58;32.35;;;16.00;;
53718;SDS011;39616;48.872;9.390;2024-02-28T08:22:28;30.42;;;15.10;;
53718;SDS011;39616;48.872;9.390;2024-02-28T08:24:59;32.53;;;16.23;;
53718;SDS011;39616;48.872;9.390;2024-02-28T08:27:29;30.27;;;15.07;;
53718;SDS011;39616;48.872;9.390;2024-02-28T08:29:59;32.47;;;15.77;;
53718;SDS011;39616;48.872;9.390;2024-02-28T08:32:30;27.63;;;14.27;;
53718;SDS011;39616;48.872;9.390;2024-02-28T08:35:00;27.98;;;14.73;;
53718;SDS011;39616;48.872;9.390;2024-02-28T08:37:31;34.97;;;16.52;;
53718;SDS011;39616;48.872;9.390;2024-02-28T08:40:01;31.65;;;16.95;;
53718;SDS011;39616;48.872;9.390;2024-02-28T08:42:31;28.75;;;15.88;;
53718;SDS011;39616;48.872;9.390;2024-02-28T08:45:01;33.13;;;14.98;;
53718;SDS011;39616;48.872;9.390;2024-02-28T08:47:33;32.75;;;14.63;;
53718;SDS011;39616;48.872;9.390;2024-02-28T08:50:04;35.90;;;14.57;;
53718;SDS011;39616;48.872;9.390;2024-02-28T08:52:34;40.05;;;16.00;;
53718;SDS011;39616;48.872;9.390;2024-02-28T08:55:05;35.47;;;14.52;;
53718;SDS011;39616;48.872;9.390;2024-02-28T08:57:36;33.78;;;15.52;;
53718;SDS011;39616;48.872;9.390;2024-02-28T09:00:06;31.45;;;14.60;;
53718;SDS011;39616;48.872;9.390;2024-02-28T09:02:39;32.80;;;15.43;;
53718;SDS011;39616;48.872;9.390;2024-02-28T09:05:09;35.83;;;15.65;;
53718;SDS011;39616;48.872;9.390;2024-02-28T09:07:39;34.10;;;14.98;;
53718;SDS011;39616;48.872;9.390;2024-02-28T09:10:09;39.47;;;15.85;;
53718;SDS011;39616;48.872;9.390;2024-02-28T09:12:41;31.83;;;16.35;;
53718;SDS011;39616;48.872;9.390;2024-02-28T09:15:11;32.70;;;14.98;;
53718;SDS011;39616;48.872;9.390;2024-02-28T09:17:41;34.22;;;17.05;;
53718;SDS011;39616;48.872;9.390;2024-02-28T09:20:11;36.25;;;14.50;;
53718;SDS011;39616;48.872;9.390;2024-02-28T09:22:42;42.90;;;17.13;;
53718;SDS011;39616;48.872;9.390;2024-02-28T09:25:12;47.15;;;16.33;;
53718;SDS011;39616;48.872;9.390;2024-02-28T09:27:43;40.72;;;15.38;;
53718;SDS011;39616;48.872;9.390;2024-02-28T09:30:14;36.75;;;15.35;;
53718;SDS011;39616;48.872;9.390;2024-02-28T09:32:44;34.28;;;15.23;;
53718;SDS011;39616;48.872;9.390;2024-02-28T09:35:15;36.30;;;16.90;;
53718;SDS011;39616;48.872;9.390;2024-02-28T09:37:45;40.55;;;16.10;;
53718;SDS011;39616;48.872;9.390;2024-02-28T09:40:15;41.25;;;17.02;;
53718;SDS011;39616;48.872;9.390;2024-02-28T09:42:48;33.38;;;15.27;;
53718;SDS011;39616;48.872;9.390;2024-02-28T09:45:23;42.22;;;18.23;;
53718;SDS011;39616;48.872;9.390;2024-02-28T09:47:54;36.60;;;17.05;;
53718;SDS011;39616;48.872;9.390;2024-02-28T09:50:25;38.72;;;17.15;;
53718;SDS011;39616;48.872;9.390;2024-02-28T09:52:57;42.53;;;17.27;;
53718;SDS011;39616;48.872;9.390;2024-02-28T09:55:27;40.88;;;17.02;;
53718;SDS011;39616;48.872;9.390;2024-02-28T09:57:57;42.15;;;17.35;;
53718;SDS011;39616;48.872;9.390;2024-02-28T10:00:28;39.15;;;16.20;;
53718;SDS011;39616;48.872;9.390;2024-02-28T10:02:59;36.47;;;16.33;;
53718;SDS011;39616;48.872;9.390;2024-02-28T10:05:31;42.50;;;18.38;;
53718;SDS011;39616;48.872;9.390;2024-02-28T10:08:04;41.15;;;17.13;;
53718;SDS011;39616;48.872;9.390;2024-02-28T10:10:38;44.17;;;17.75;;
53718;SDS011;39616;48.872;9.390;2024-02-28T10:13:17;43.13;;;17.52;;
53718;SDS011;39616;48.872;9.390;2024-02-28T10:15:48;40.00;;;17.20;;
53718;SDS011;39616;48.872;9.390;2024-02-28T10:18:19;46.20;;;17.92;;
53718;SDS011;39616;48.872;9.390;2024-02-28T10:20:50;44.72;;;18.20;;
53718;SDS011;39616;48.872;9.390;2024-02-28T10:23:20;42.30;;;18.08;;
53718;SDS011;39616;48.872;9.390;2024-02-28T10:25:50;43.50;;;17.45;;
53718;SDS011;39616;48.872;9.390;2024-02-28T10:28:21;45.05;;;17.40;;
53718;SDS011;39616;48.872;9.390;2024-02-28T10:30:51;39.65;;;16.73;;
53718;SDS011;39616;48.872;9.390;2024-02-28T10:33:25;39.03;;;16.65;;
53718;SDS011;39616;48.872;9.390;2024-02-28T10:35:59;43.42;;;17.58;;
53718;SDS011;39616;48.872;9.390;2024-02-28T10:38:30;42.67;;;17.58;;
53718;SDS011;39616;48.872;9.390;2024-02-28T10:41:03;37.70;;;15.82;;
53718;SDS011;39616;48.872;9.390;2024-02-28T10:43:33;37.78;;;16.30;;
53718;SDS011;39616;48.872;9.390;2024-02-28T10:46:04;34.78;;;15.52;;
53718;SDS011;39616;48.872;9.390;2024-02-28T10:48:38;43.00;;;16.73;;
53718;SDS011;39616;48.872;9.390;2024-02-28T10:51:09;34.08;;;15.40;;
53718;SDS011;39616;48.872;9.390;2024-02-28T10:53:45;36.88;;;15.77;;
53718;SDS011;39616;48.872;9.390;2024-02-28T10:56:19;36.80;;;15.48;;
53718;SDS011;39616;48.872;9.390;2024-02-28T10:58:53;40.85;;;15.73;;
53718;SDS011;39616;48.872;9.390;2024-02-28T11:01:29;34.20;;;14.02;;
53718;SDS011;39616;48.872;9.390;2024-02-28T11:03:59;29.73;;;13.95;;
53718;SDS011;39616;48.872;9.390;2024-02-28T11:06:30;33.03;;;14.55;;
53718;SDS011;39616;48.872;9.390;2024-02-28T11:09:00;33.33;;;14.45;;
53718;SDS011;39616;48.872;9.390;2024-02-28T11:11:33;38.88;;;15.18;;
53718;SDS011;39616;48.872;9.390;2024-02-28T11:14:03;33.30;;;14.07;;
53718;SDS011;39616;48.872;9.390;2024-02-28T11:16:33;32.28;;;14.27;;
53718;SDS011;39616;48.872;9.390;2024-02-28T11:19:04;31.67;;;15.00;;
53718;SDS011;39616;48.872;9.390;2024-02-28T11:21:34;28.80;;;13.65;;
53718;SDS011;39616;48.872;9.390;2024-02-28T11:24:05;29.17;;;13.05;;
53718;SDS011;39616;48.872;9.390;2024-02-28T11:26:36;32.45;;;14.20;;
53718;SDS011;39616;48.872;9.390;2024-02-28T11:29:07;30.00;;;12.98;;
53718;SDS011;39616;48.872;9.390;2024-02-28T11:31:37;31.50;;;13.52;;
53718;SDS011;39616;48.872;9.390;2024-02-28T11:34:08;28.48;;;11.48;;
53718;SDS011;39616;48.872;9.390;2024-02-28T11:36:38;32.72;;;14.05;;
53718;SDS011;39616;48.872;9.390;2024-02-28T11:39:10;34.70;;;13.88;;
53718;SDS011;39616;48.872;9.390;2024-02-28T11:41:43;32.72;;;14.70;;
53718;SDS011;39616;48.872;9.390;2024-02-28T11:44:16;34.55;;;14.25;;
53718;SDS011;39616;48.872;9.390;2024-02-28T11:46:48;32.30;;;13.85;;
53718;SDS011;39616;48.872;9.390;2024-02-28T11:49:19;30.40;;;12.70;;
53718;SDS011;39616;48.872;9.390;2024-02-28T11:51:49;31.00;;;13.85;;
53718;SDS011;39616;48.872;9.390;2024-02-28T11:54:19;32.63;;;12.60;;
53718;SDS011;39616;48.872;9.390;2024-02-28T11:56:49;36.05;;;14.38;;
53718;SDS011;39616;48.872;9.390;2024-02-28T11:59:20;32.83;;;14.40;;
53718;SDS011;39616;48.872;9.390;2024-02-28T12:01:50;31.58;;;12.15;;
53718;SDS011;39616;48.872;9.390;2024-02-28T12:04:23;30.70;;;13.10;;
53718;SDS011;39616;48.872;9.390;2024-02-28T12:06:55;31.55;;;13.18;;
53718;SDS011;39616;48.872;9.390;2024-02-28T12:09:27;27.30;;;13.15;;
53718;SDS011;39616;48.872;9.390;2024-02-28T12:12:00;30.98;;;14.18;;
53718;SDS011;39616;48.872;9.390;2024-02-28T12:14:37;32.65;;;13.48;;
53718;SDS011;39616;48.872;9.390;2024-02-28T12:17:08;30.27;;;13.20;;
53718;SDS011;39616;48.872;9.390;2024-02-28T12:19:40;27.58;;;12.05;;
53718;SDS011;39616;48.872;9.390;2024-02-28T12:22:10;34.33;;;14.15;;
53718;SDS011;39616;48.872;9.390;2024-02-28T12:24:41;26.80;;;11.93;;
53718;SDS011;39616;48.872;9.390;2024-02-28T12:27:11;34.17;;;13.50;;
53718;SDS011;39616;48.872;9.390;2024-02-28T12:29:41;28.55;;;13.15;;
53718;SDS011;39616;48.872;9.390;2024-02-28T12:32:12;31.77;;;12.88;;
53718;SDS011;39616;48.872;9.390;2024-02-28T12:34:42;29.55;;;13.50;;
53718;SDS011;39616;48.872;9.390;2024-02-28T12:37:12;30.98;;;13.82;;
53718;SDS011;39616;48.872;9.390;2024-02-28T12:39:43;26.90;;;11.63;;
53718;SDS011;39616;48.872;9.390;2024-02-28T12:42:13;32.92;;;12.05;;
53718;SDS011;39616;48.872;9.390;2024-02-28T12:44:43;25.73;;;12.02;;
53718;SDS011;39616;48.872;9.390;2024-02-28T12:47:17;27.65;;;11.90;;
53718;SDS011;39616;48.872;9.390;2024-02-28T12:49:47;25.33;;;13.05;;
53718;SDS011;39616;48.872;9.390;2024-02-28T12:52:17;27.73;;;11.95;;
53718;SDS011;39616;48.872;9.390;2024-02-28T12:54:48;24.27;;;12.25;;
53718;SDS011;39616;48.872;9.390;2024-02-28T12:57:21;24.52;;;11.18;;
53718;SDS011;39616;48.872;9.390;2024-02-28T12:59:51;27.23;;;11.82;;
53718;SDS011;39616;48.872;9.390;2024-02-28T13:02:21;28.98;;;12.02;;
53718;SDS011;39616;48.872;9.390;2024-02-28T13:04:52;24.55;;;11.70;;
53718;SDS011;39616;48.872;9.390;2024-02-28T13:07:22;29.88;;;12.80;;
53718;SDS011;39616;48.872;9.390;2024-02-28T13:09:52;27.55;;;11.90;;
53718;SDS011;39616;48.872;9.390;2024-02-28T13:12:23;23.30;;;11.52;;
53718;SDS011;39616;48.872;9.390;2024-02-28T13:14:53;27.10;;;13.15;;
53718;SDS011;39616;48.872;9.390;2024-02-28T13:17:24;29.02;;;13.00;;
53718;SDS011;39616;48.872;9.390;2024-02-28T13:19:54;26.30;;;12.18;;
53718;SDS011;39616;48.872;9.390;2024-02-28T13:22:25;24.63;;;11.70;;
53718;SDS011;39616;48.872;9.390;2024-02-28T13:24:55;28.73;;;13.27;;
53718;SDS011;39616;48.872;9.390;2024-02-28T13:27:25;25.42;;;11.82;;
53718;SDS011;39616;48.872;9.390;2024-02-28T13:29:56;24.65;;;11.73;;
53718;SDS011;39616;48.872;9.390;2024-02-28T13:32:27;25.17;;;12.30;;
53718;SDS011;39616;48.872;9.390;2024-02-28T13:34:57;25.20;;;11.00;;
53718;SDS011;39616;48.872;9.390;2024-02-28T13:37:27;27.63;;;11.95;;
53718;SDS011;39616;48.872;9.390;2024-02-28T13:39:57;26.65;;;11.82;;
53718;SDS011;39616;48.872;9.390;2024-02-28T13:42:28;27.85;;;12.93;;
53718;SDS011;39616;48.872;9.390;2024-02-28T13:44:58;24.45;;;12.27;;
53718;SDS011;39616;48.872;9.390;2024-02-28T13:47:29;35.65;;;13.38;;
53718;SDS011;39616;48.872;9.390;2024-02-28T13:49:59;31.60;;;12.48;;
53718;SDS011;39616;48.872;9.390;2024-02-28T13:52:29;28.65;;;12.25;;
53718;SDS011;39616;48.872;9.390;2024-02-28T13:55:00;27.05;;;12.52;;
53718;SDS011;39616;48.872;9.390;2024-02-28T13:57:30;26.90;;;13.48;;
53718;SDS011;39616;48.872;9.390;2024-02-28T14:00:00;27.88;;;13.15;;
53718;SDS011;39616;48.872;9.390;2024-02-28T14:02:30;28.23;;;13.75;;
53718;SDS011;39616;48.872;9.390;2024-02-28T14:05:01;26.05;;;13.45;;
53718;SDS011;39616;48.872;9.390;2024-02-28T14:07:31;23.02;;;10.95;;
53718;SDS011;39616;48.872;9.390;2024-02-28T14:10:01;24.58;;;11.52;;
53718;SDS011;39616;48.872;9.390;2024-02-28T14:12:32;21.83;;;10.05;;
53718;SDS011;39616;48.872;9.390;2024-02-28T14:15:06;25.40;;;10.95;;
53718;SDS011;39616;48.872;9.390;2024-02-28T14:17:37;23.00;;;10.88;;
53718;SDS011;39616;48.872;9.390;2024-02-28T14:20:08;20.95;;;11.35;;
53718;SDS011;39616;48.872;9.390;2024-02-28T14:22:39;21.77;;;10.43;;
53718;SDS011;39616;48.872;9.390;2024-02-28T14:25:13;22.02;;;11.25;;
53718;SDS011;39616;48.872;9.390;2024-02-28T14:27:47;24.00;;;11.07;;
53718;SDS011;39616;48.872;9.390;2024-02-28T14:30:18;22.48;;;10.32;;
53718;SDS011;39616;48.872;9.390;2024-02-28T14:32:48;23.55;;;11.25;;
53718;SDS011;39616;48.872;9.390;2024-02-28T14:35:19;19.95;;;11.25;;
53718;SDS011;39616;48.872;9.390;2024-02-28T14:37:49;21.77;;;11.20;;
53718;SDS011;39616;48.872;9.390;2024-02-28T14:40:22;27.15;;;10.95;;